Time;durP1;ratioP1;P1;durP2;ratioP2;P2;SDS_P1;SDS_P2;PMS_P1;PMS_P2;Temp;Humidity;BMP_temperature;BMP_pressure;BME280_temperature;BME280_humidity;BME280_pressure;Samples;Min_cycle;Max_cycle;Signal;HPM_P1;HPM_P2
2022/11/10 00:01:49;;;;;;;574.67;494.15;;;;;;;;;;4988270;28;20439;-76
2022/11/10 00:04:15;;;;;;;571.90;489.25;;;;;;;;;;4988856;28;20571;-76
2022/11/10 00:06:43;;;;;;;573.80;494.80;;;;;;;;;;4987791;28;20441;-76
2022/11/10 00:09:09;;;;;;;572.38;491.45;;;;;;;;;;4990821;28;20455;-77
2022/11/10 00:11:35;;;;;;;571.27;485.63;;;;;;;;;;4989104;28;21037;-76
2022/11/10 00:17:03;;;;;;;572.47;490.70;;;;;;;;;;4990028;28;20515;-76
2022/11/10 00:19:29;;;;;;;573.10;491.20;;;;;;;;;;4990904;28;20440;-76
2022/11/10 00:21:55;;;;;;;576.03;495.38;;;;;;;;;;4988301;28;20433;-76
2022/11/10 00:24:22;;;;;;;574.25;494.30;;;;;;;;;;4986781;28;20417;-76
2022/11/10 00:26:48;;;;;;;570.42;484.50;;;;;;;;;;4989353;28;20628;-76
2022/11/10 00:29:14;;;;;;;572.90;487.87;;;;;;;;;;5005737;28;20562;-76
2022/11/10 00:31:40;;;;;;;571.53;484.92;;;;;;;;;;5012071;28;20853;-76
2022/11/10 00:34:07;;;;;;;570.03;483.38;;;;;;;;;;4991591;28;20420;-76
2022/11/10 00:36:36;;;;;;;572.63;489.77;;;;;;;;;;4989651;28;20449;-76
2022/11/10 00:39:03;;;;;;;573.00;486.67;;;;;;;;;;4988529;28;20858;-76
2022/11/10 00:41:29;;;;;;;571.88;485.60;;;;;;;;;;4987948;28;20432;-76
2022/11/10 00:43:55;;;;;;;570.38;482.25;;;;;;;;;;4990958;28;20423;-76
2022/11/10 00:46:21;;;;;;;571.42;486.08;;;;;;;;;;4989962;28;20428;-75
2022/11/10 00:48:48;;;;;;;570.90;484.75;;;;;;;;;;4992862;28;20443;-76
2022/11/10 00:51:24;;;;;;;572.90;487.88;;;;;;;;;;4985842;28;20524;-76
2022/11/10 00:53:50;;;;;;;572.47;486.77;;;;;;;;;;4988770;28;20825;-76
2022/11/10 00:56:16;;;;;;;572.35;488.20;;;;;;;;;;5003867;28;20436;-76
2022/11/10 00:58:42;;;;;;;573.17;491.45;;;;;;;;;;4987701;28;21181;-75
2022/11/10 01:01:09;;;;;;;572.08;487.13;;;;;;;;;;5003835;28;20464;-76
2022/11/10 01:03:35;;;;;;;572.67;489.02;;;;;;;;;;5002147;28;20960;-76
2022/11/10 01:06:06;;;;;;;571.90;485.20;;;;;;;;;;5003262;28;20426;-76
2022/11/10 01:08:32;;;;;;;572.20;486.73;;;;;;;;;;5005019;28;20503;-76
2022/11/10 01:11:02;;;;;;;570.65;480.75;;;;;;;;;;4987159;28;21707;-76
2022/11/10 01:13:28;;;;;;;571.85;485.55;;;;;;;;;;4988046;28;20452;-76
2022/11/10 01:15:54;;;;;;;571.10;483.70;;;;;;;;;;4987903;28;20511;-76
2022/11/10 01:18:20;;;;;;;571.97;489.63;;;;;;;;;;5003759;28;20442;-76
2022/11/10 01:20:50;;;;;;;571.65;486.65;;;;;;;;;;4988166;28;20946;-76
2022/11/10 01:23:16;;;;;;;571.95;490.50;;;;;;;;;;4987726;28;20433;-76
2022/11/10 01:25:42;;;;;;;570.65;482.92;;;;;;;;;;4989075;28;20438;-76
2022/11/10 01:28:08;;;;;;;569.95;484.27;;;;;;;;;;4989392;28;21047;-75
2022/11/10 01:30:34;;;;;;;571.00;486.83;;;;;;;;;;4988460;28;20891;-76
2022/11/10 01:33:00;;;;;;;572.50;489.67;;;;;;;;;;4986907;28;20915;-76
2022/11/10 01:35:26;;;;;;;571.37;485.73;;;;;;;;;;4987015;28;20443;-76
2022/11/10 01:37:52;;;;;;;571.83;488.83;;;;;;;;;;4989359;28;20429;-76
2022/11/10 01:40:19;;;;;;;571.45;484.20;;;;;;;;;;4989290;28;20432;-76
2022/11/10 01:42:51;;;;;;;573.72;489.65;;;;;;;;;;4985765;28;20417;-76
2022/11/10 01:45:23;;;;;;;570.97;482.92;;;;;;;;;;5004222;28;22335;-77
2022/11/10 01:47:50;;;;;;;571.90;484.43;;;;;;;;;;4988946;28;20432;-76
2022/11/10 01:50:16;;;;;;;570.95;481.25;;;;;;;;;;5003620;28;20429;-76
2022/11/10 01:52:46;;;;;;;570.90;480.40;;;;;;;;;;4970616;28;20429;-76
2022/11/10 01:55:12;;;;;;;570.83;480.27;;;;;;;;;;5004312;28;20435;-76
2022/11/10 01:57:39;;;;;;;571.08;479.77;;;;;;;;;;4987579;28;20440;-76
2022/11/10 02:00:06;;;;;;;570.10;479.55;;;;;;;;;;4986894;28;20433;-76
2022/11/10 02:02:56;;;;;;;569.65;478.35;;;;;;;;;;4987725;28;20795;-75
2022/11/10 02:05:23;;;;;;;570.87;480.70;;;;;;;;;;4990305;28;20466;-76
2022/11/10 02:07:52;;;;;;;573.35;489.40;;;;;;;;;;5006965;28;20431;-76
2022/11/10 02:10:19;;;;;;;571.00;481.67;;;;;;;;;;4991231;28;20467;-76
2022/11/10 02:12:45;;;;;;;570.60;479.83;;;;;;;;;;4990908;28;20494;-76
2022/11/10 02:15:14;;;;;;;570.70;479.70;;;;;;;;;;4987617;28;20458;-76
2022/11/10 02:17:41;;;;;;;568.58;475.77;;;;;;;;;;4996057;28;20894;-76
2022/11/10 02:20:09;;;;;;;570.13;476.00;;;;;;;;;;5005999;28;21218;-76
2022/11/10 02:22:35;;;;;;;569.88;478.30;;;;;;;;;;4974618;28;20423;-76
2022/11/10 02:25:01;;;;;;;569.33;476.52;;;;;;;;;;4988907;28;20422;-76
2022/11/10 02:27:27;;;;;;;569.95;478.33;;;;;;;;;;4991674;28;20423;-76
2022/11/10 02:29:53;;;;;;;573.75;489.45;;;;;;;;;;4987398;28;20492;-76
2022/11/10 02:32:19;;;;;;;569.22;479.45;;;;;;;;;;4989040;28;20446;-76
2022/11/10 02:34:45;;;;;;;570.22;482.08;;;;;;;;;;4988301;28;20429;-76
2022/11/10 02:37:11;;;;;;;570.65;480.05;;;;;;;;;;4989809;28;20433;-77
2022/11/10 02:39:37;;;;;;;569.10;477.33;;;;;;;;;;4973348;28;20493;-76
2022/11/10 02:42:09;;;;;;;568.10;473.23;;;;;;;;;;5007686;28;20781;-76
2022/11/10 02:44:38;;;;;;;570.80;481.33;;;;;;;;;;5009412;28;21922;-76
2022/11/10 02:47:04;;;;;;;570.70;479.20;;;;;;;;;;5007854;28;20442;-75
2022/11/10 02:49:30;;;;;;;570.83;479.15;;;;;;;;;;5007860;28;21026;-76
2022/11/10 02:51:56;;;;;;;569.95;482.25;;;;;;;;;;4989435;28;20919;-76
2022/11/10 02:54:22;;;;;;;571.13;481.67;;;;;;;;;;4989858;28;20506;-76
2022/11/10 02:56:48;;;;;;;569.55;478.67;;;;;;;;;;4970290;28;20423;-76
2022/11/10 02:59:14;;;;;;;570.00;480.90;;;;;;;;;;4989042;28;20442;-77
2022/11/10 03:01:40;;;;;;;572.25;483.33;;;;;;;;;;4988159;28;20439;-76
2022/11/10 03:04:06;;;;;;;570.25;482.83;;;;;;;;;;4989882;28;20430;-76
2022/11/10 03:06:32;;;;;;;570.47;484.88;;;;;;;;;;5006674;28;20530;-76
2022/11/10 03:08:59;;;;;;;571.97;484.23;;;;;;;;;;4988022;28;20802;-76
2022/11/10 03:11:25;;;;;;;568.85;476.52;;;;;;;;;;4988905;28;20462;-76
2022/11/10 03:13:51;;;;;;;569.97;479.90;;;;;;;;;;4989019;28;20439;-76
2022/11/10 03:16:17;;;;;;;567.97;475.23;;;;;;;;;;4989334;28;20431;-76
2022/11/10 03:18:43;;;;;;;569.70;478.40;;;;;;;;;;4986994;28;20435;-76
2022/11/10 03:21:09;;;;;;;569.08;476.58;;;;;;;;;;4988190;28;20458;-76
2022/11/10 03:23:36;;;;;;;568.50;474.87;;;;;;;;;;4988646;28;20426;-76
2022/11/10 03:26:05;;;;;;;568.20;472.40;;;;;;;;;;4990949;28;20889;-76
2022/11/10 03:28:31;;;;;;;570.08;477.63;;;;;;;;;;5007476;28;20418;-76
2022/11/10 03:30:58;;;;;;;571.20;482.65;;;;;;;;;;5006929;28;20423;-77
2022/11/10 03:33:24;;;;;;;569.25;477.48;;;;;;;;;;5005729;28;20796;-76
2022/11/10 03:35:50;;;;;;;569.80;479.10;;;;;;;;;;4987937;28;20423;-76
2022/11/10 03:38:16;;;;;;;570.00;480.38;;;;;;;;;;4989081;28;20462;-76
2022/11/10 03:40:42;;;;;;;568.72;478.15;;;;;;;;;;5008363;28;20800;-76
2022/11/10 03:43:08;;;;;;;568.63;477.67;;;;;;;;;;5011543;28;20430;-77
2022/11/10 03:45:34;;;;;;;569.03;476.85;;;;;;;;;;4990187;28;20433;-75
2022/11/10 03:48:00;;;;;;;566.72;472.50;;;;;;;;;;4993247;28;20419;-76
2022/11/10 03:50:26;;;;;;;568.42;474.17;;;;;;;;;;4992225;28;20431;-76
2022/11/10 03:52:52;;;;;;;568.97;475.00;;;;;;;;;;5011873;28;20434;-76
2022/11/10 03:55:18;;;;;;;567.42;473.52;;;;;;;;;;5009049;28;20532;-76
2022/11/10 03:57:44;;;;;;;568.20;474.92;;;;;;;;;;5009858;28;20512;-77
2022/11/10 04:00:11;;;;;;;568.33;474.15;;;;;;;;;;4992684;28;20847;-76
2022/11/10 04:02:38;;;;;;;570.15;476.90;;;;;;;;;;4977665;28;20434;-75
2022/11/10 04:10:40;;;;;;;569.55;476.17;;;;;;;;;;4992379;28;20591;-76
2022/11/10 04:15:51;;;;;;;568.50;473.95;;;;;;;;;;4992876;28;20986;-76
2022/11/10 04:18:20;;;;;;;567.42;473.60;;;;;;;;;;4992714;28;20988;-76
2022/11/10 04:20:47;;;;;;;568.22;470.95;;;;;;;;;;5011573;28;20429;-76
2022/11/10 04:23:25;;;;;;;565.92;470.42;;;;;;;;;;4993671;28;20427;-76
2022/11/10 04:28:36;;;;;;;568.83;476.42;;;;;;;;;;5011678;28;20856;-76
2022/11/10 04:31:02;;;;;;;567.70;474.52;;;;;;;;;;5010302;28;20502;-76
2022/11/10 04:33:28;;;;;;;569.70;480.63;;;;;;;;;;5011160;28;20426;-77
2022/11/10 04:35:54;;;;;;;569.50;480.55;;;;;;;;;;4989851;28;20435;-77
2022/11/10 04:38:20;;;;;;;568.97;480.08;;;;;;;;;;4992037;28;20435;-76
2022/11/10 04:40:46;;;;;;;568.47;480.73;;;;;;;;;;4990690;28;20965;-76
2022/11/10 04:43:12;;;;;;;570.90;483.45;;;;;;;;;;4991117;28;20496;-76
2022/11/10 04:45:38;;;;;;;569.80;483.60;;;;;;;;;;4991018;28;20419;-76
2022/11/10 04:48:04;;;;;;;570.80;487.30;;;;;;;;;;4991283;28;20862;-75
2022/11/10 04:50:30;;;;;;;570.97;487.20;;;;;;;;;;4991459;28;21882;-77
2022/11/10 04:52:56;;;;;;;571.00;486.83;;;;;;;;;;4991356;28;20484;-76
2022/11/10 04:55:22;;;;;;;574.40;492.50;;;;;;;;;;4990498;28;21259;-76
2022/11/10 04:57:49;;;;;;;570.10;488.75;;;;;;;;;;4991518;28;20530;-76
2022/11/10 05:00:15;;;;;;;572.08;489.48;;;;;;;;;;4991388;28;21103;-76
2022/11/10 05:02:41;;;;;;;571.92;487.48;;;;;;;;;;5008852;28;20514;-76
2022/11/10 05:05:07;;;;;;;571.20;484.40;;;;;;;;;;4990618;28;20505;-76
2022/11/10 05:07:33;;;;;;;571.55;489.27;;;;;;;;;;5009994;28;20525;-76
2022/11/10 05:09:59;;;;;;;572.40;489.75;;;;;;;;;;4991679;28;21039;-76
2022/11/10 05:12:25;;;;;;;572.35;491.30;;;;;;;;;;4990610;28;20461;-76
2022/11/10 05:14:51;;;;;;;570.35;486.67;;;;;;;;;;4992039;28;20502;-76
2022/11/10 05:17:18;;;;;;;571.37;488.23;;;;;;;;;;4989818;28;20625;-76
2022/11/10 05:19:46;;;;;;;570.83;489.38;;;;;;;;;;4989790;28;20620;-76
2022/11/10 05:22:12;;;;;;;570.60;487.08;;;;;;;;;;5010106;28;20450;-76
2022/11/10 05:24:38;;;;;;;572.85;492.00;;;;;;;;;;5010945;28;20522;-76
2022/11/10 05:27:04;;;;;;;571.03;486.67;;;;;;;;;;4988265;28;20434;-76
2022/11/10 05:29:30;;;;;;;570.47;486.08;;;;;;;;;;4990216;28;20435;-76
2022/11/10 05:31:56;;;;;;;571.88;490.08;;;;;;;;;;5008852;28;20430;-75
2022/11/10 05:34:22;;;;;;;572.58;490.55;;;;;;;;;;4991303;28;20797;-76
2022/11/10 05:36:48;;;;;;;570.92;489.80;;;;;;;;;;4989534;28;20438;-76
2022/11/10 05:39:14;;;;;;;571.70;486.43;;;;;;;;;;4990063;28;20525;-76
2022/11/10 05:41:40;;;;;;;570.95;487.98;;;;;;;;;;4990232;28;20439;-77
2022/11/10 05:44:07;;;;;;;569.85;485.02;;;;;;;;;;4973554;28;20434;-76
2022/11/10 05:46:33;;;;;;;572.80;491.52;;;;;;;;;;4990321;28;20443;-76
2022/11/10 05:48:59;;;;;;;571.75;491.40;;;;;;;;;;5009702;28;20430;-76
2022/11/10 05:51:25;;;;;;;572.97;492.65;;;;;;;;;;5008255;28;20427;-76
2022/11/10 05:53:51;;;;;;;571.60;487.77;;;;;;;;;;5009215;28;20816;-76
2022/11/10 05:56:17;;;;;;;569.58;486.65;;;;;;;;;;4987982;28;20545;-75
2022/11/10 05:58:43;;;;;;;571.30;491.75;;;;;;;;;;5009596;28;20533;-76
2022/11/10 06:01:09;;;;;;;572.78;494.40;;;;;;;;;;4994146;28;20526;-77
2022/11/10 06:03:35;;;;;;;571.43;492.50;;;;;;;;;;4990104;28;20491;-78
2022/11/10 06:06:01;;;;;;;570.72;489.65;;;;;;;;;;5012754;28;20536;-79
2022/11/10 06:08:27;;;;;;;574.67;495.92;;;;;;;;;;4988666;28;20778;-77
2022/11/10 06:10:53;;;;;;;573.58;495.70;;;;;;;;;;4984536;28;20438;-77
2022/11/10 06:13:19;;;;;;;574.60;497.83;;;;;;;;;;4965728;28;20435;-76
2022/11/10 06:15:45;;;;;;;573.42;495.38;;;;;;;;;;4985149;28;20467;-75
2022/11/10 06:18:11;;;;;;;573.60;496.17;;;;;;;;;;5003618;28;20427;-76
2022/11/10 06:20:37;;;;;;;574.10;497.05;;;;;;;;;;4986649;28;20439;-76
2022/11/10 06:23:03;;;;;;;574.10;497.80;;;;;;;;;;5004528;28;20426;-76
2022/11/10 06:25:30;;;;;;;572.78;496.48;;;;;;;;;;4986664;28;20442;-76
2022/11/10 06:27:57;;;;;;;578.88;505.75;;;;;;;;;;4999340;28;20438;-75
2022/11/10 06:30:23;;;;;;;572.42;495.77;;;;;;;;;;4983277;28;22286;-75
2022/11/10 06:32:49;;;;;;;572.58;496.95;;;;;;;;;;5002686;28;20422;-74
2022/11/10 06:35:15;;;;;;;574.45;498.65;;;;;;;;;;5007292;28;20504;-75
2022/11/10 06:37:41;;;;;;;572.90;494.02;;;;;;;;;;5006086;28;20421;-75
2022/11/10 06:40:08;;;;;;;574.67;497.80;;;;;;;;;;5003298;28;20423;-76
2022/11/10 06:42:35;;;;;;;572.97;494.20;;;;;;;;;;5005556;28;21217;-76
2022/11/10 06:45:01;;;;;;;571.88;491.73;;;;;;;;;;4995379;28;20445;-74
2022/11/10 06:47:28;;;;;;;573.08;493.58;;;;;;;;;;4989090;28;20532;-74
2022/11/10 06:49:54;;;;;;;573.85;495.33;;;;;;;;;;5009439;28;20425;-74
2022/11/10 06:52:20;;;;;;;572.85;492.25;;;;;;;;;;4985273;28;21189;-75
2022/11/10 06:54:46;;;;;;;571.97;492.30;;;;;;;;;;4985991;28;20430;-75
2022/11/10 06:57:12;;;;;;;570.87;488.30;;;;;;;;;;4985891;28;20789;-75
2022/11/10 06:59:38;;;;;;;573.00;493.77;;;;;;;;;;4986399;28;21764;-75
2022/11/10 07:02:04;;;;;;;572.42;494.60;;;;;;;;;;4987663;28;20929;-75
2022/11/10 07:04:30;;;;;;;573.22;495.80;;;;;;;;;;4975070;28;20418;-75
2022/11/10 07:06:57;;;;;;;573.42;498.90;;;;;;;;;;4988634;28;20515;-76
2022/11/10 07:09:23;;;;;;;573.70;498.17;;;;;;;;;;4988658;28;20442;-75
2022/11/10 07:11:49;;;;;;;576.13;503.83;;;;;;;;;;4970595;28;20788;-76
2022/11/10 07:14:15;;;;;;;575.08;502.80;;;;;;;;;;4990339;28;20605;-75
2022/11/10 07:16:41;;;;;;;573.70;499.80;;;;;;;;;;4992450;28;20529;-75
2022/11/10 07:19:07;;;;;;;575.00;505.33;;;;;;;;;;4994929;28;20442;-76
2022/11/10 07:21:33;;;;;;;574.53;506.58;;;;;;;;;;4994337;28;20429;-75
2022/11/10 07:23:59;;;;;;;573.77;504.17;;;;;;;;;;5013182;28;20931;-76
2022/11/10 07:26:25;;;;;;;574.67;504.88;;;;;;;;;;4994228;28;20510;-75
2022/11/10 07:28:51;;;;;;;572.67;504.38;;;;;;;;;;5010914;28;21148;-75
2022/11/10 07:31:17;;;;;;;574.60;508.20;;;;;;;;;;4993700;28;20481;-75
2022/11/10 07:33:44;;;;;;;574.10;503.52;;;;;;;;;;4992930;28;20963;-76
2022/11/10 07:36:10;;;;;;;573.90;504.00;;;;;;;;;;4991907;28;20427;-75
2022/11/10 07:38:36;;;;;;;573.40;501.27;;;;;;;;;;4991874;28;20427;-76
2022/11/10 07:41:11;;;;;;;581.73;517.73;;;;;;;;;;4992485;28;20472;-77
2022/11/10 07:43:40;;;;;;;578.42;514.53;;;;;;;;;;4993455;28;20429;-79
2022/11/10 07:46:06;;;;;;;580.28;516.28;;;;;;;;;;5008712;28;20514;-76
2022/11/10 07:48:32;;;;;;;576.78;512.95;;;;;;;;;;4993712;28;20437;-76
2022/11/10 07:50:58;;;;;;;585.65;521.42;;;;;;;;;;4992161;28;20929;-76
2022/11/10 07:53:24;;;;;;;582.27;518.27;;;;;;;;;;4992284;28;20525;-76
2022/11/10 07:55:50;;;;;;;585.85;521.65;;;;;;;;;;4992789;28;21191;-76
2022/11/10 07:58:17;;;;;;;586.67;522.50;;;;;;;;;;4992993;28;20423;-76
2022/11/10 08:00:44;;;;;;;590.70;526.40;;;;;;;;;;5008192;28;20522;-75
2022/11/10 08:03:10;;;;;;;595.33;530.92;;;;;;;;;;4990898;28;21029;-76
2022/11/10 08:05:36;;;;;;;594.13;529.83;;;;;;;;;;4992047;28;20438;-76
2022/11/10 08:08:03;;;;;;;598.15;533.75;;;;;;;;;;4992670;28;20439;-76
2022/11/10 08:10:29;;;;;;;603.17;538.67;;;;;;;;;;4990892;28;20427;-76
2022/11/10 08:12:56;;;;;;;614.30;549.50;;;;;;;;;;5007270;28;20624;-78
2022/11/10 08:15:22;;;;;;;627.03;561.83;;;;;;;;;;4990415;28;20510;-77
2022/11/10 08:17:49;;;;;;;632.83;567.50;;;;;;;;;;4990708;28;20618;-76
2022/11/10 08:20:15;;;;;;;639.60;574.10;;;;;;;;;;4992709;28;20525;-75
2022/11/10 08:22:41;;;;;;;653.63;587.53;;;;;;;;;;4990705;28;21014;-75
2022/11/10 08:25:07;;;;;;;653.75;587.88;;;;;;;;;;4993062;28;20877;-75
2022/11/10 08:27:34;;;;;;;665.63;599.33;;;;;;;;;;4990701;28;20513;-75
2022/11/10 08:30:00;;;;;;;673.63;606.97;;;;;;;;;;4990189;28;20427;-76
2022/11/10 08:32:26;;;;;;;675.83;609.33;;;;;;;;;;4991826;28;20454;-75
2022/11/10 08:34:52;;;;;;;677.80;611.10;;;;;;;;;;5008043;28;20802;-75
2022/11/10 08:37:18;;;;;;;682.00;615.30;;;;;;;;;;4991266;28;20438;-75
2022/11/10 08:39:44;;;;;;;678.90;612.30;;;;;;;;;;4990403;28;20467;-75
2022/11/10 08:42:10;;;;;;;683.08;616.35;;;;;;;;;;4988743;28;21012;-75
2022/11/10 08:44:36;;;;;;;685.17;618.38;;;;;;;;;;4987525;28;20457;-75
2022/11/10 08:47:02;;;;;;;684.20;617.50;;;;;;;;;;4991485;28;20442;-76
2022/11/10 08:49:28;;;;;;;681.53;614.90;;;;;;;;;;4991114;28;20913;-76
2022/11/10 08:51:54;;;;;;;686.37;619.47;;;;;;;;;;4991759;28;20925;-76
2022/11/10 08:54:20;;;;;;;684.72;618.03;;;;;;;;;;5007045;28;20457;-76
2022/11/10 08:56:46;;;;;;;679.88;613.25;;;;;;;;;;4991299;28;20999;-79
2022/11/10 08:59:12;;;;;;;685.45;618.65;;;;;;;;;;4993122;28;20477;-79
2022/11/10 09:01:38;;;;;;;690.45;623.55;;;;;;;;;;5008845;28;20485;-78
2022/11/10 09:04:04;;;;;;;697.17;630.07;;;;;;;;;;4992126;28;20490;-78
2022/11/10 09:06:30;;;;;;;706.53;639.22;;;;;;;;;;4993110;28;20477;-78
2022/11/10 09:08:56;;;;;;;715.05;647.35;;;;;;;;;;4990260;28;20896;-77
2022/11/10 09:11:22;;;;;;;715.97;648.42;;;;;;;;;;4990264;28;20439;-77
2022/11/10 09:13:48;;;;;;;723.38;655.55;;;;;;;;;;4992210;28;20435;-76
2022/11/10 09:16:14;;;;;;;716.80;649.10;;;;;;;;;;5011681;28;20943;-75
2022/11/10 09:18:40;;;;;;;723.65;655.83;;;;;;;;;;4990230;28;20509;-72
2022/11/10 09:21:10;;;;;;;722.85;655.05;;;;;;;;;;4987314;28;21118;-73
2022/11/10 09:23:36;;;;;;;725.50;657.58;;;;;;;;;;4987771;28;20784;-73
2022/11/10 09:26:06;;;;;;;721.25;653.58;;;;;;;;;;4990921;28;20438;-71
2022/11/10 09:28:32;;;;;;;725.38;657.38;;;;;;;;;;4989836;28;21074;-72
2022/11/10 09:30:59;;;;;;;725.55;657.75;;;;;;;;;;4990959;28;20435;-73
2022/11/10 09:33:25;;;;;;;723.63;655.92;;;;;;;;;;4992933;28;20435;-74
2022/11/10 09:35:55;;;;;;;711.08;643.78;;;;;;;;;;4990948;28;20427;-73
2022/11/10 09:38:21;;;;;;;716.33;648.80;;;;;;;;;;4992407;28;20431;-73
2022/11/10 09:41:11;;;;;;;707.13;639.85;;;;;;;;;;4990742;28;20431;-73
2022/11/10 09:43:42;;;;;;;710.95;643.58;;;;;;;;;;4992191;28;20427;-73
2022/11/10 09:46:13;;;;;;;703.33;636.13;;;;;;;;;;4990896;28;20546;-73
2022/11/10 09:48:43;;;;;;;700.85;633.75;;;;;;;;;;4991664;28;20427;-73
2022/11/10 09:51:12;;;;;;;704.17;637.03;;;;;;;;;;4990561;28;20442;-73
2022/11/10 09:53:43;;;;;;;702.88;635.58;;;;;;;;;;4996538;28;20541;-73
2022/11/10 09:56:12;;;;;;;698.13;631.13;;;;;;;;;;5008934;28;20435;-73
2022/11/10 09:58:40;;;;;;;699.95;632.92;;;;;;;;;;4989712;28;20506;-73
2022/11/10 10:01:24;;;;;;;695.42;628.53;;;;;;;;;;4989771;28;20536;-73
2022/11/10 10:03:54;;;;;;;695.72;628.72;;;;;;;;;;4990916;28;22255;-73
2022/11/10 10:06:21;;;;;;;690.58;623.72;;;;;;;;;;4991004;28;20484;-73
2022/11/10 10:09:07;;;;;;;690.90;624.00;;;;;;;;;;4990039;28;20442;-73
2022/11/10 10:11:48;;;;;;;694.03;627.13;;;;;;;;;;4990271;28;20552;-73
2022/11/10 10:14:44;;;;;;;694.45;627.45;;;;;;;;;;4992934;28;20568;-73
2022/11/10 10:17:22;;;;;;;695.17;628.13;;;;;;;;;;4977971;28;20439;-73
2022/11/10 10:19:48;;;;;;;697.83;630.75;;;;;;;;;;4989544;28;20439;-72
2022/11/10 10:22:30;;;;;;;701.83;634.67;;;;;;;;;;5009019;28;20430;-73
2022/11/10 10:24:58;;;;;;;701.88;634.80;;;;;;;;;;5009674;28;20435;-73
2022/11/10 10:27:25;;;;;;;701.70;634.47;;;;;;;;;;4991469;28;21329;-73
2022/11/10 10:29:52;;;;;;;702.17;635.00;;;;;;;;;;4990874;28;20431;-73
2022/11/10 10:32:21;;;;;;;707.17;639.80;;;;;;;;;;4990170;28;21217;-73
2022/11/10 10:34:47;;;;;;;714.60;647.20;;;;;;;;;;5010833;28;20434;-73
2022/11/10 10:37:16;;;;;;;721.63;653.75;;;;;;;;;;4991229;28;20514;-73
2022/11/10 10:39:45;;;;;;;718.13;650.53;;;;;;;;;;5009751;28;20431;-73
2022/11/10 10:42:28;;;;;;;720.08;652.58;;;;;;;;;;4989623;28;20519;-73
2022/11/10 10:45:13;;;;;;;726.53;658.72;;;;;;;;;;4991313;28;21610;-73
2022/11/10 10:47:39;;;;;;;732.13;664.23;;;;;;;;;;5005544;28;20834;-72
2022/11/10 10:50:24;;;;;;;734.42;666.42;;;;;;;;;;4990617;28;20429;-73
2022/11/10 10:53:05;;;;;;;738.30;670.08;;;;;;;;;;5009211;28;20778;-73
2022/11/10 10:55:32;;;;;;;738.63;670.47;;;;;;;;;;4989606;28;20442;-73
2022/11/10 10:58:00;;;;;;;738.85;669.85;;;;;;;;;;4990764;28;20525;-73
2022/11/10 11:00:28;;;;;;;744.05;675.45;;;;;;;;;;5008953;28;20433;-73
2022/11/10 11:03:05;;;;;;;739.78;671.38;;;;;;;;;;5009000;28;20433;-73
2022/11/10 11:05:31;;;;;;;738.17;670.03;;;;;;;;;;4990342;28;20433;-72
2022/11/10 11:07:58;;;;;;;736.60;668.55;;;;;;;;;;5008374;28;20427;-73
2022/11/10 11:10:30;;;;;;;744.17;675.78;;;;;;;;;;4989802;28;21047;-73
2022/11/10 11:13:29;;;;;;;740.28;671.97;;;;;;;;;;4990743;28;20481;-73
2022/11/10 11:15:59;;;;;;;739.67;671.40;;;;;;;;;;4976023;28;20443;-73
2022/11/10 11:18:26;;;;;;;735.53;667.40;;;;;;;;;;4989868;28;20461;-73
2022/11/10 11:20:57;;;;;;;738.63;670.42;;;;;;;;;;4989380;28;20956;-73
2022/11/10 11:23:23;;;;;;;739.83;671.67;;;;;;;;;;5009770;28;21927;-73
2022/11/10 11:25:51;;;;;;;734.38;666.28;;;;;;;;;;4989765;28;20909;-73
2022/11/10 11:28:20;;;;;;;734.25;666.25;;;;;;;;;;4990615;28;20433;-72
2022/11/10 11:30:58;;;;;;;738.92;670.72;;;;;;;;;;5006292;28;20442;-73
2022/11/10 11:33:42;;;;;;;733.38;665.38;;;;;;;;;;5007307;28;20435;-73
2022/11/10 11:36:14;;;;;;;734.13;666.13;;;;;;;;;;5009247;28;20813;-73
2022/11/10 11:38:40;;;;;;;738.97;670.70;;;;;;;;;;4988841;28;20433;-73
2022/11/10 11:41:06;;;;;;;738.47;670.23;;;;;;;;;;5008514;28;20443;-72
2022/11/10 11:43:39;;;;;;;742.88;674.47;;;;;;;;;;4990222;28;20435;-73
2022/11/10 11:46:17;;;;;;;746.35;677.95;;;;;;;;;;4989769;28;20917;-73
2022/11/10 11:48:47;;;;;;;745.80;677.30;;;;;;;;;;5009258;28;20423;-73
2022/11/10 11:51:20;;;;;;;741.53;673.22;;;;;;;;;;5005226;28;20489;-73
2022/11/10 11:53:51;;;;;;;741.63;673.53;;;;;;;;;;4989937;28;20437;-73
2022/11/10 11:56:24;;;;;;;743.13;674.80;;;;;;;;;;4989296;28;20431;-73
2022/11/10 11:59:09;;;;;;;746.80;678.38;;;;;;;;;;5006569;28;20439;-73
2022/11/10 12:01:51;;;;;;;746.60;678.28;;;;;;;;;;5008227;28;20434;-73
2022/11/10 12:04:17;;;;;;;744.97;676.67;;;;;;;;;;4990738;28;20504;-74
2022/11/10 12:07:02;;;;;;;742.50;674.30;;;;;;;;;;4993053;28;20989;-73
2022/11/10 12:09:36;;;;;;;742.50;674.38;;;;;;;;;;4994181;28;20441;-73
2022/11/10 12:12:09;;;;;;;740.53;672.42;;;;;;;;;;4992135;28;20450;-72
2022/11/10 12:14:54;;;;;;;741.55;673.45;;;;;;;;;;4992983;28;20438;-73
2022/11/10 12:17:20;;;;;;;737.70;669.70;;;;;;;;;;4993354;28;20890;-73
2022/11/10 12:19:55;;;;;;;738.72;670.63;;;;;;;;;;4993316;28;20441;-72
2022/11/10 12:22:38;;;;;;;739.03;670.92;;;;;;;;;;4992709;28;20427;-73
2022/11/10 12:25:12;;;;;;;738.33;670.33;;;;;;;;;;4992977;28;20451;-73
2022/11/10 12:27:49;;;;;;;740.05;672.05;;;;;;;;;;4991366;28;20754;-72
2022/11/10 12:30:16;;;;;;;739.92;671.83;;;;;;;;;;4992925;28;20455;-73
2022/11/10 12:32:42;;;;;;;737.10;668.90;;;;;;;;;;4992896;28;20488;-73
2022/11/10 12:35:14;;;;;;;738.95;670.95;;;;;;;;;;4994178;28;20955;-73
2022/11/10 12:37:42;;;;;;;742.38;674.17;;;;;;;;;;4996008;28;20419;-73
2022/11/10 12:40:19;;;;;;;739.53;671.42;;;;;;;;;;5012735;28;20442;-73
2022/11/10 12:42:46;;;;;;;733.42;665.42;;;;;;;;;;5011968;28;20476;-73
2022/11/10 12:45:35;;;;;;;737.90;669.80;;;;;;;;;;4993063;28;20427;-73
2022/11/10 12:48:03;;;;;;;738.63;670.50;;;;;;;;;;5010664;28;20425;-72
2022/11/10 12:50:40;;;;;;;739.22;671.13;;;;;;;;;;4993620;28;20438;-73
2022/11/10 12:53:21;;;;;;;744.58;676.35;;;;;;;;;;4992358;28;20435;-73
2022/11/10 12:55:54;;;;;;;740.20;672.20;;;;;;;;;;4993205;28;20434;-73
2022/11/10 12:58:20;;;;;;;742.55;674.45;;;;;;;;;;4991538;28;20517;-73
2022/11/10 13:01:00;;;;;;;735.30;667.30;;;;;;;;;;4992645;28;20528;-72
2022/11/10 13:03:34;;;;;;;737.95;669.95;;;;;;;;;;4992143;28;20427;-73
2022/11/10 13:06:01;;;;;;;741.77;673.67;;;;;;;;;;4992704;28;22640;-73
2022/11/10 13:08:40;;;;;;;739.17;671.10;;;;;;;;;;4993828;28;20431;-73
2022/11/10 13:11:26;;;;;;;745.83;677.43;;;;;;;;;;5011141;28;21274;-73
2022/11/10 13:13:52;;;;;;;744.83;676.47;;;;;;;;;;4992280;28;20690;-73
2022/11/10 13:16:39;;;;;;;740.33;672.15;;;;;;;;;;5008767;28;20430;-73
2022/11/10 13:19:08;;;;;;;745.40;677.05;;;;;;;;;;4993088;28;20715;-73
2022/11/10 13:21:52;;;;;;;744.08;675.78;;;;;;;;;;4974392;28;20546;-73
2022/11/10 13:24:18;;;;;;;742.38;674.20;;;;;;;;;;4991799;28;20548;-73
2022/11/10 13:26:44;;;;;;;745.85;677.45;;;;;;;;;;4992065;28;20553;-73
2022/11/10 13:29:30;;;;;;;746.70;678.35;;;;;;;;;;4992775;28;21528;-74
2022/11/10 13:31:58;;;;;;;740.47;672.38;;;;;;;;;;5007494;28;20426;-73
2022/11/10 13:34:32;;;;;;;746.47;678.08;;;;;;;;;;4990711;28;20430;-73
2022/11/10 13:36:58;;;;;;;740.95;672.78;;;;;;;;;;4992723;28;20447;-73
2022/11/10 13:39:27;;;;;;;744.85;676.63;;;;;;;;;;4991044;28;21003;-73
2022/11/10 13:42:01;;;;;;;745.80;677.58;;;;;;;;;;5010292;28;20419;-73
2022/11/10 13:44:36;;;;;;;747.80;679.40;;;;;;;;;;5010570;28;20457;-74
2022/11/10 13:47:08;;;;;;;743.90;675.63;;;;;;;;;;4991829;28;20438;-73
2022/11/10 13:49:47;;;;;;;746.90;678.60;;;;;;;;;;4992479;28;20529;-73
2022/11/10 13:52:16;;;;;;;750.78;682.30;;;;;;;;;;4991258;28;20438;-73
2022/11/10 13:54:54;;;;;;;750.75;682.35;;;;;;;;;;4991039;28;20521;-73
2022/11/10 13:57:31;;;;;;;753.22;684.67;;;;;;;;;;5010027;28;20474;-73
2022/11/10 13:59:59;;;;;;;750.25;681.85;;;;;;;;;;4991806;28;20848;-74
2022/11/10 14:02:38;;;;;;;747.67;679.28;;;;;;;;;;4991165;28;20431;-73
2022/11/10 14:05:05;;;;;;;751.13;682.72;;;;;;;;;;4991940;28;20465;-73
2022/11/10 14:07:36;;;;;;;749.57;681.17;;;;;;;;;;4987010;28;20795;-73
2022/11/10 14:10:11;;;;;;;753.07;684.47;;;;;;;;;;4989376;28;21738;-73
2022/11/10 14:12:40;;;;;;;748.45;680.22;;;;;;;;;;5009442;28;20443;-73
2022/11/10 14:15:12;;;;;;;750.53;682.08;;;;;;;;;;4988345;28;20441;-73